Time;durP1;ratioP1;P1;durP2;ratioP2;P2;SDS_P1;SDS_P2;PMS_P1;PMS_P2;Temp;Humidity;BMP_temperature;BMP_pressure;BME280_temperature;BME280_humidity;BME280_pressure;Samples;Min_cycle;Max_cycle;Signal;HPM_P1;HPM_P2
2023/03/19 00:00:10;;;;;;;;;13.00;8.00;;;;;11.67;86.25;100810.88;5141610;27;45163;-64
2023/03/19 00:02:35;;;;;;;;;6.67;6.33;;;;;11.57;85.63;100798.84;5141792;27;45324;-64
2023/03/19 00:05:01;;;;;;;;;3.00;3.00;;;;;11.58;85.92;100809.34;5141030;27;45394;-64
2023/03/19 00:07:27;;;;;;;;;6.00;6.00;;;;;11.36;85.95;100769.50;5140836;27;45236;-64
2023/03/19 00:09:52;;;;;;;;;13.00;9.67;;;;;11.52;85.99;100800.72;5141680;27;45880;-64
2023/03/19 00:12:18;;;;;;;;;8.00;8.00;;;;;11.53;85.49;100821.81;5141661;27;45393;-64
2023/03/19 00:14:43;;;;;;;;;8.67;7.00;;;;;11.53;85.89;100826.19;5141290;27;46603;-64
2023/03/19 00:17:09;;;;;;;;;9.33;6.33;;;;;11.45;85.35;100816.72;5141127;27;45239;-64
2023/03/19 00:19:34;;;;;;;;;9.50;8.00;;;;;11.10;85.70;100763.09;5141348;27;45294;-64
2023/03/19 00:22:00;;;;;;;;;9.00;8.00;;;;;11.41;85.73;100820.31;5140792;27;45508;-64
2023/03/19 00:24:26;;;;;;;;;8.00;8.00;;;;;11.35;85.38;100822.28;5140581;27;46591;-64
2023/03/19 00:26:51;;;;;;;;;8.00;8.00;;;;;11.39;85.50;100834.47;5141130;27;45434;-64
2023/03/19 00:29:17;;;;;;;;;7.75;7.00;;;;;11.34;84.88;100824.03;5141164;27;45422;-64
2023/03/19 00:31:42;;;;;;;;;8.00;7.00;;;;;11.28;84.15;100814.53;5140986;27;45402;-64
2023/03/19 00:34:08;;;;;;;;;6.75;5.50;;;;;11.31;84.78;100839.91;5140926;27;46179;-64
2023/03/19 00:36:34;;;;;;;;;7.00;7.00;;;;;11.27;85.03;100847.03;5140928;27;45456;-64
2023/03/19 00:39:00;;;;;;;;;9.67;8.00;;;;;11.12;85.11;100824.56;5140956;27;45254;-64
2023/03/19 00:41:25;;;;;;;;;7.33;7.33;;;;;11.20;84.78;100847.25;5140957;27;45251;-64
2023/03/19 00:43:55;;;;;;;;;9.00;7.00;;;;;10.77;85.15;100788.50;5140497;27;45711;-64
2023/03/19 00:46:21;;;;;;;;;7.00;7.00;;;;;11.16;85.21;100859.59;5140559;27;45293;-64
2023/03/19 00:48:47;;;;;;;;;5.25;5.25;;;;;11.07;84.75;100854.56;5140838;27;45363;-64
2023/03/19 00:51:12;;;;;;;;;7.00;7.00;;;;;11.10;85.07;100859.75;5140959;27;45391;-64
2023/03/19 00:53:43;;;;;;;;;8.33;6.67;;;;;11.03;85.21;100864.28;5140338;27;45619;-64
2023/03/19 00:56:11;;;;;;;;;10.00;7.00;;;;;11.03;85.05;100873.97;5140507;27;45291;-64
2023/03/19 00:58:37;;;;;;;;;10.67;8.00;;;;;10.99;85.10;100873.16;5140665;27;45419;-64
2023/03/19 01:01:04;;;;;;;;;6.00;4.67;;;;;10.85;84.67;100859.41;5140735;27;45349;-64
2023/03/19 01:03:29;;;;;;;;;9.00;7.67;;;;;10.90;84.76;100866.31;5140176;27;46112;-64
2023/03/19 01:05:56;;;;;;;;;8.33;8.33;;;;;10.82;84.75;100860.38;5140491;27;45292;-64
2023/03/19 01:08:22;;;;;;;;;6.67;6.00;;;;;10.77;85.81;100859.59;5140126;27;45406;-64
2023/03/19 01:10:47;;;;;;;;;12.67;9.00;;;;;10.81;85.74;100882.34;5140700;27;45320;-64
2023/03/19 01:13:13;;;;;;;;;9.33;9.00;;;;;10.83;85.32;100882.31;5140196;27;45231;-64
2023/03/19 01:15:41;;;;;;;;;7.33;7.33;;;;;10.80;84.76;100893.78;5140092;27;45231;-64
2023/03/19 01:18:07;;;;;;;;;11.67;7.67;;;;;10.68;85.40;100872.97;5140414;27;45362;-64
2023/03/19 01:20:34;;;;;;;;;10.00;8.33;;;;;10.68;85.31;100873.84;5140444;27;45379;-64
2023/03/19 01:23:00;;;;;;;;;10.00;9.00;;;;;10.65;84.93;100871.28;5139861;27;46420;-64
2023/03/19 01:25:26;;;;;;;;;7.00;7.00;;;;;10.67;85.41;100882.63;5139997;27;45748;-64
2023/03/19 01:27:51;;;;;;;;;13.00;8.00;;;;;10.63;85.13;100879.22;5139929;27;45299;-64
2023/03/19 01:30:17;;;;;;;;;7.50;6.00;;;;;10.62;84.70;100880.09;5140569;27;45475;-64
2023/03/19 01:32:42;;;;;;;;;7.33;6.00;;;;;10.56;84.91;100868.84;5139975;27;45281;-64
2023/03/19 01:35:08;;;;;;;;;7.75;6.75;;;;;10.58;84.88;100874.94;5139025;27;45305;-64
2023/03/19 01:37:34;;;;;;;;;10.25;5.00;;;;;10.49;85.48;100868.09;5139832;27;45360;-64
2023/03/19 01:39:59;;;;;;;;;9.00;7.00;;;;;10.48;84.94;100873.38;5140155;27;45320;-64
2023/03/19 01:42:25;;;;;;;;;9.67;7.67;;;;;10.39;85.68;100871.81;5139682;27;45627;-64
2023/03/19 01:44:50;;;;;;;;;8.00;6.67;;;;;10.52;85.61;100891.72;5139736;27;45246;-64
2023/03/19 01:47:23;;;;;;;;;8.00;6.50;;;;;10.46;85.57;100868.16;5139989;27;45636;-64
2023/03/19 01:49:53;;;;;;;;;6.33;6.00;;;;;10.40;85.16;100858.63;5140262;27;45284;-64
2023/03/19 01:52:19;;;;;;;;;7.00;7.00;;;;;10.48;85.65;100883.91;5139457;27;46637;-64
2023/03/19 01:54:46;;;;;;;;;8.67;7.00;;;;;10.46;84.46;100881.31;5139503;27;45505;-64
2023/03/19 01:57:15;;;;;;;;;8.00;8.00;;;;;10.43;85.30;100876.13;5139903;27;45520;-64
2023/03/19 01:59:46;;;;;;;;;8.25;6.00;;;;;10.42;84.96;100872.59;5139876;27;45384;-64
2023/03/19 02:02:18;;;;;;;;;8.00;6.33;;;;;10.40;85.43;100873.56;5139588;27;45367;-64
2023/03/19 02:04:46;;;;;;;;;6.75;6.50;;;;;10.34;85.36;100866.66;5139458;27;45401;-64
2023/03/19 02:07:12;;;;;;;;;6.00;6.00;;;;;10.37;84.81;100877.09;5139420;27;45389;-64
2023/03/19 02:09:40;;;;;;;;;8.33;7.00;;;;;10.25;85.15;100859.75;5139640;27;45303;-64
2023/03/19 02:12:07;;;;;;;;;8.00;5.00;;;;;10.33;85.03;100866.66;5139036;27;47360;-65
2023/03/19 02:14:33;;;;;;;;;7.75;7.75;;;;;10.30;84.33;100862.28;5139347;27;45331;-64
2023/03/19 02:16:58;;;;;;;;;9.33;7.00;;;;;10.26;84.92;100855.34;5139592;27;45303;-64
2023/03/19 02:19:48;;;;;;;;;7.75;5.50;;;;;10.26;84.75;100860.63;5139533;27;45255;-64
2023/03/19 02:22:18;;;;;;;;;6.50;6.50;;;;;10.19;84.93;100849.34;5139305;27;46288;-64
2023/03/19 02:24:55;;;;;;;;;12.00;5.67;;;;;10.21;84.98;100852.81;5138988;27;45345;-64
2023/03/19 02:27:21;;;;;;;;;7.75;7.50;;;;;10.08;84.92;100841.66;5139434;27;45379;-64
2023/03/19 02:29:46;;;;;;;;;5.33;4.00;;;;;10.15;84.41;100860.84;5139521;27;45608;-64
2023/03/19 02:32:12;;;;;;;;;9.67;5.00;;;;;9.99;84.87;100841.84;5139112;27;46010;-64
2023/03/19 02:34:42;;;;;;;;;5.50;4.00;;;;;10.16;84.84;100872.22;5139299;27;45330;-64
2023/03/19 02:37:20;;;;;;;;;5.50;4.50;;;;;10.11;84.48;100867.91;5138989;27;45461;-64
2023/03/19 02:39:50;;;;;;;;;6.25;4.25;;;;;10.14;84.42;100874.00;5139113;27;45324;-64
2023/03/19 02:42:18;;;;;;;;;4.00;4.00;;;;;10.05;84.30;100872.41;5139023;27;45489;-64
2023/03/19 02:44:43;;;;;;;;;4.00;4.00;;;;;9.98;84.16;100855.88;5138874;27;45528;-64
2023/03/19 02:47:09;;;;;;;;;7.33;6.00;;;;;10.04;84.91;100873.31;5142347;27;45665;-64
2023/03/19 02:49:34;;;;;;;;;5.25;4.25;;;;;10.04;85.00;100878.59;5142934;27;45371;-64
2023/03/19 02:52:00;;;;;;;;;6.50;6.50;;;;;10.02;84.49;100880.34;5142583;27;47437;-64
2023/03/19 02:54:26;;;;;;;;;7.33;6.33;;;;;9.99;84.54;100881.31;5123379;27;45658;-64
2023/03/19 02:56:51;;;;;;;;;7.00;5.75;;;;;9.92;85.02;100875.28;5142735;27;45443;-64
2023/03/19 02:59:17;;;;;;;;;5.00;5.00;;;;;9.89;84.61;100885.84;5142873;27;45465;-64
2023/03/19 03:01:43;;;;;;;;;9.67;6.33;;;;;9.84;85.30;100878.94;5142496;27;45605;-64
2023/03/19 03:04:08;;;;;;;;;7.00;7.00;;;;;9.70;85.42;100861.66;5142343;27;45248;-64
2023/03/19 03:06:33;;;;;;;;;6.00;6.00;;;;;9.74;85.26;100867.72;5142336;27;45374;-64
2023/03/19 03:08:59;;;;;;;;;6.25;4.50;;;;;9.78;85.01;100874.66;5142334;27;45804;-64
2023/03/19 03:11:25;;;;;;;;;6.00;6.00;;;;;9.74;85.55;100880.84;5142339;27;45720;-64
2023/03/19 03:13:50;;;;;;;;;9.33;6.00;;;;;9.74;86.38;100879.13;5142286;27;45232;-64
2023/03/19 03:16:16;;;;;;;;;7.50;5.75;;;;;9.77;85.37;100883.44;5142270;27;45292;-64
2023/03/19 03:18:41;;;;;;;;;8.00;6.75;;;;;9.68;85.23;100871.31;5142403;27;45466;-64
2023/03/19 03:21:07;;;;;;;;;7.00;6.00;;;;;9.74;85.46;100884.38;5142157;27;46064;-64
2023/03/19 03:23:32;;;;;;;;;5.00;5.00;;;;;9.67;85.90;100871.34;5141788;27;45443;-64
2023/03/19 03:25:57;;;;;;;;;6.25;6.25;;;;;9.57;84.89;100861.00;5142230;27;45420;-64
2023/03/19 03:28:23;;;;;;;;;2.00;1.00;;;;;9.53;86.33;100854.03;5142015;27;45455;-64
2023/03/19 03:30:49;;;;;;;;;4.25;4.00;;;;;9.64;86.58;100874.88;5142100;27;45654;-64
2023/03/19 03:33:16;;;;;;;;;5.00;5.00;;;;;9.63;86.17;100865.28;5141832;27;45345;-64
2023/03/19 03:35:41;;;;;;;;;3.00;3.00;;;;;9.60;86.05;100860.06;5142048;27;45388;-64
2023/03/19 03:38:07;;;;;;;;;8.67;6.00;;;;;9.69;85.87;100867.78;5142162;27;45361;-64
2023/03/19 03:40:33;;;;;;;;;5.00;5.00;;;;;9.73;86.20;100869.47;5141689;27;46657;-64
2023/03/19 03:42:58;;;;;;;;;9.00;4.75;;;;;9.70;86.09;100858.13;5141705;27;45225;-64
2023/03/19 03:45:23;;;;;;;;;7.67;7.00;;;;;9.71;85.83;100852.84;5141784;27;45636;-64
2023/03/19 03:47:49;;;;;;;;;7.33;6.00;;;;;9.75;85.84;100851.03;5140474;27;45492;-64
2023/03/19 03:50:15;;;;;;;;;6.00;6.00;;;;;9.81;85.63;100852.69;5141613;27;47210;-64
2023/03/19 03:52:41;;;;;;;;;8.67;6.00;;;;;9.86;85.06;100859.63;5140297;27;45247;-64
2023/03/19 03:55:07;;;;;;;;;6.00;5.00;;;;;9.88;85.49;100867.47;5141587;27;45215;-64
2023/03/19 03:57:33;;;;;;;;;5.33;5.00;;;;;9.86;85.70;100859.63;5138466;27;45835;-64
2023/03/19 03:59:58;;;;;;;;;6.67;5.33;;;;;9.82;85.35;100842.16;5106600;27;45563;-64
2023/03/19 04:02:24;;;;;;;;;8.50;4.75;;;;;9.92;84.92;100866.53;5108900;27;45260;-64
2023/03/19 04:04:49;;;;;;;;;5.33;4.00;;;;;9.96;84.37;100872.59;5100126;27;45333;-63
2023/03/19 04:07:15;;;;;;;;;9.00;5.67;;;;;9.87;84.90;100850.81;5100241;27;45312;-64
2023/03/19 04:09:41;;;;;;;;;6.25;5.00;;;;;9.95;84.96;100855.94;5099512;27;46175;-64
2023/03/19 04:12:06;;;;;;;;;6.75;5.00;;;;;9.94;84.75;100854.22;5099794;27;45263;-64
2023/03/19 04:14:31;;;;;;;;;3.25;3.25;;;;;10.02;85.21;100860.19;5100252;27;45434;-64
2023/03/19 04:16:57;;;;;;;;;3.25;3.25;;;;;10.07;84.58;100862.75;5100184;27;45359;-63
2023/03/19 04:19:22;;;;;;;;;6.33;4.33;;;;;10.07;85.15;100860.09;5099803;27;46419;-64
2023/03/19 04:21:47;;;;;;;;;6.00;6.00;;;;;10.05;85.26;100851.34;5099816;27;45280;-64
2023/03/19 04:24:13;;;;;;;;;7.00;4.00;;;;;10.12;85.55;100858.25;5099585;27;45220;-64
2023/03/19 04:26:39;;;;;;;;;6.33;5.00;;;;;10.19;84.35;100864.25;5100098;27;45311;-64
2023/03/19 04:29:05;;;;;;;;;6.00;5.33;;;;;10.18;84.53;100865.16;5099500;27;46492;-64
2023/03/19 04:31:30;;;;;;;;;5.00;5.00;;;;;10.14;84.53;100864.38;5099803;27;45304;-64
2023/03/19 04:33:56;;;;;;;;;7.67;5.33;;;;;10.21;84.67;100888.78;5099662;27;45262;-64
2023/03/19 04:36:22;;;;;;;;;6.50;6.50;;;;;10.23;84.31;100889.63;5099731;27;45228;-64
2023/03/19 04:38:47;;;;;;;;;6.67;6.67;;;;;10.25;83.87;100886.06;5099388;27;46450;-64
2023/03/19 04:41:15;;;;;;;;;7.00;6.00;;;;;10.25;84.17;100885.19;5099241;27;45474;-64
2023/03/19 04:43:40;;;;;;;;;9.33;6.67;;;;;10.34;83.55;100892.06;5099495;27;45344;-64
2023/03/19 04:46:06;;;;;;;;;8.00;5.00;;;;;10.26;83.65;100879.03;5099592;27;45299;-64
2023/03/19 04:48:34;;;;;;;;;7.33;5.00;;;;;10.31;83.30;100885.09;5098519;27;45439;-64
2023/03/19 04:51:03;;;;;;;;;6.50;5.00;;;;;10.31;83.77;100897.38;5099444;27;45326;-64
2023/03/19 04:53:28;;;;;;;;;7.67;4.33;;;;;10.26;83.32;100900.94;5099396;27;45381;-64
2023/03/19 04:55:54;;;;;;;;;6.33;5.00;;;;;10.27;83.22;100915.84;5099457;27;45441;-64
2023/03/19 04:58:20;;;;;;;;;8.67;6.33;;;;;10.24;83.64;100912.44;5099286;27;46114;-64
2023/03/19 05:00:46;;;;;;;;;5.25;5.25;;;;;10.11;83.58;100898.63;5099163;27;45767;-64
2023/03/19 05:03:13;;;;;;;;;11.25;7.00;;;;;10.09;84.01;100898.66;5099186;27;45352;-64
2023/03/19 05:05:38;;;;;;;;;15.33;10.33;;;;;10.15;84.05;100912.56;5099263;27;45383;-64
2023/03/19 05:08:03;;;;;;;;;8.00;5.33;;;;;10.07;84.35;100907.47;5098495;27;45379;-64
2023/03/19 05:10:29;;;;;;;;;6.75;5.50;;;;;10.09;83.99;100917.06;5098786;27;45375;-64
2023/03/19 05:12:54;;;;;;;;;8.33;6.00;;;;;10.03;83.59;100917.16;5099143;27;45374;-64
2023/03/19 05:15:20;;;;;;;;;5.50;5.25;;;;;9.93;83.10;100903.31;5099493;27;45303;-64
2023/03/19 05:17:45;;;;;;;;;11.25;7.00;;;;;9.97;84.33;100917.28;5098753;27;45385;-64
2023/03/19 05:20:11;;;;;;;;;5.25;5.00;;;;;9.87;84.26;100907.81;5098902;27;45438;-64
2023/03/19 05:22:37;;;;;;;;;7.00;7.00;;;;;9.90;83.97;100920.91;5098877;27;45282;-64
2023/03/19 05:25:02;;;;;;;;;8.50;6.75;;;;;9.82;84.78;100917.56;5098616;27;45464;-64
2023/03/19 05:27:28;;;;;;;;;9.75;7.00;;;;;9.88;84.96;100933.22;5097819;27;45639;-64
2023/03/19 05:29:53;;;;;;;;;5.67;5.67;;;;;9.80;84.84;100914.06;5098681;27;45453;-64
2023/03/19 05:32:19;;;;;;;;;8.67;8.67;;;;;9.89;84.74;100932.31;5098940;27;45379;-64
2023/03/19 05:34:45;;;;;;;;;9.67;8.00;;;;;9.86;84.61;100930.63;5098864;27;45436;-64
2023/03/19 05:37:10;;;;;;;;;7.67;6.00;;;;;9.83;84.53;100927.16;5098464;27;46497;-64
2023/03/19 05:39:36;;;;;;;;;5.67;5.67;;;;;9.86;84.63;100933.25;5097605;27;45295;-64
2023/03/19 05:42:01;;;;;;;;;8.00;6.33;;;;;9.81;84.66;100926.34;5098721;27;45412;-64
2023/03/19 05:44:27;;;;;;;;;7.00;6.00;;;;;9.86;84.72;100928.00;5098757;27;45411;-64
2023/03/19 05:46:52;;;;;;;;;10.00;7.00;;;;;9.91;84.49;100943.69;5098466;27;45510;-64
2023/03/19 05:49:17;;;;;;;;;6.00;6.00;;;;;10.00;84.32;100956.69;5098440;27;45288;-64
2023/03/19 05:51:43;;;;;;;;;8.33;6.00;;;;;9.83;84.27;100919.28;5098681;27;45423;-64
2023/03/19 05:54:08;;;;;;;;;7.25;6.00;;;;;10.01;84.11;100950.53;5098612;27;45327;-64
2023/03/19 05:56:33;;;;;;;;;6.25;5.75;;;;;10.07;83.22;100947.78;5098327;27;46689;-64
2023/03/19 05:58:59;;;;;;;;;10.67;7.00;;;;;9.99;83.51;100933.03;5098249;27;45646;-64
2023/03/19 06:01:25;;;;;;;;;11.67;7.00;;;;;10.15;83.73;100957.31;5098398;27;45344;-64
2023/03/19 06:03:50;;;;;;;;;7.00;7.00;;;;;10.15;83.68;100962.56;5098181;27;45192;-64
2023/03/19 06:06:16;;;;;;;;;8.33;6.00;;;;;10.10;83.92;100960.03;5097857;27;46552;-64
2023/03/19 06:08:41;;;;;;;;;10.00;8.67;;;;;10.19;83.85;100970.38;5098018;27;45461;-64
2023/03/19 06:11:07;;;;;;;;;11.00;7.33;;;;;10.17;83.90;100963.44;5098065;27;45322;-65
2023/03/19 06:13:33;;;;;;;;;40.33;35.00;;;;;10.18;83.71;100968.66;5098416;27;45414;-64
2023/03/19 06:15:58;;;;;;;;;17.00;14.67;;;;;10.19;83.63;100975.63;5097899;27;46199;-64
2023/03/19 06:18:24;;;;;;;;;9.00;8.33;;;;;10.12;84.36;100960.84;5097934;27;45504;-64
2023/03/19 06:20:49;;;;;;;;;11.67;9.67;;;;;10.22;83.67;100969.47;5101137;27;45688;-64
2023/03/19 06:23:15;;;;;;;;;9.00;8.00;;;;;10.23;84.60;100974.69;5105179;27;45441;-64
2023/03/19 06:25:40;;;;;;;;;8.33;8.33;;;;;10.33;83.78;100982.44;5104395;27;47237;-64
2023/03/19 06:28:06;;;;;;;;;7.33;7.33;;;;;10.33;84.09;100972.78;5104860;27;45424;-64
2023/03/19 06:30:32;;;;;;;;;7.25;7.25;;;;;10.39;83.59;100985.00;5104763;27;45451;-64
2023/03/19 06:32:57;;;;;;;;;12.00;8.67;;;;;10.41;83.85;100983.19;5105066;27;45432;-64
2023/03/19 06:35:23;;;;;;;;;7.33;6.00;;;;;10.40;83.55;100978.84;5104539;27;45389;-64
2023/03/19 06:37:48;;;;;;;;;14.33;6.67;;;;;10.42;83.25;100988.41;5103894;27;45314;-64
2023/03/19 06:40:14;;;;;;;;;7.33;7.33;;;;;10.43;83.45;100990.16;5104723;27;45337;-64
2023/03/19 06:42:42;;;;;;;;;8.33;6.33;;;;;10.44;83.28;100988.38;5104707;27;45387;-64
2023/03/19 06:45:09;;;;;;;;;8.33;7.00;;;;;10.38;83.45;100975.34;5104066;27;46487;-64
2023/03/19 06:47:34;;;;;;;;;9.33;8.33;;;;;10.38;83.64;100981.50;5104415;27;45514;-64
2023/03/19 06:50:00;;;;;;;;;19.00;16.00;;;;;10.42;83.76;100985.78;5104582;27;45336;-64
2023/03/19 06:52:26;;;;;;;;;14.00;8.67;;;;;10.46;84.08;100983.97;5104685;27;45339;-67
2023/03/19 06:54:51;;;;;;;;;11.67;8.67;;;;;10.49;83.47;100986.56;5104249;27;47141;-64
2023/03/19 06:57:16;;;;;;;;;11.00;10.33;;;;;10.48;83.50;100989.22;5104321;27;45319;-64
2023/03/19 06:59:41;;;;;;;;;3.67;2.00;;;;;10.51;83.28;100997.91;5104300;27;45547;-64
2023/03/19 07:02:10;;;;;;;;;14.00;12.67;;;;;10.58;83.68;101001.31;5104372;27;45380;-64
2023/03/19 07:04:35;;;;;;;;;16.00;14.33;;;;;10.67;83.51;100997.63;5104183;27;46809;-64
2023/03/19 07:07:01;;;;;;;;;14.67;11.33;;;;;10.71;83.35;100994.91;5104116;27;45204;-64
2023/03/19 07:09:27;;;;;;;;;8.33;8.33;;;;;10.76;82.95;101003.59;5104245;27;45454;-64
2023/03/19 07:11:52;;;;;;;;;12.50;9.50;;;;;10.73;83.38;100998.41;5104403;27;45348;-64
2023/03/19 07:14:17;;;;;;;;;20.00;9.33;;;;;10.74;83.52;100999.25;5103943;27;46361;-64
2023/03/19 07:16:42;;;;;;;;;14.33;9.67;;;;;10.82;83.90;101007.00;5104189;27;45394;-64
2023/03/19 07:19:10;;;;;;;;;12.00;8.00;;;;;10.85;82.88;101007.81;5104189;27;45350;-64
2023/03/19 07:21:35;;;;;;;;;13.67;12.00;;;;;10.84;83.25;101005.22;5104204;27;45521;-64
2023/03/19 07:24:01;;;;;;;;;12.50;8.00;;;;;10.90;82.69;101010.34;5104029;27;46289;-64
2023/03/19 07:26:26;;;;;;;;;14.33;10.33;;;;;10.92;83.40;101017.34;5103706;27;45280;-64
2023/03/19 07:28:52;;;;;;;;;11.00;9.33;;;;;10.78;83.20;100979.88;5104176;27;45351;-64
2023/03/19 07:31:17;;;;;;;;;10.33;9.67;;;;;10.97;82.46;101009.34;5103778;27;45307;-64
2023/03/19 07:33:43;;;;;;;;;16.67;13.00;;;;;10.95;83.46;101003.25;5099287;27;47402;-64
2023/03/19 07:36:08;;;;;;;;;11.33;10.00;;;;;11.07;83.64;101020.56;5100457;27;45218;-64
2023/03/19 07:38:34;;;;;;;;;19.00;14.33;;;;;11.15;83.26;101016.88;5100577;27;45334;-64
2023/03/19 07:40:59;;;;;;;;;14.33;13.33;;;;;11.20;82.92;101021.19;5100679;27;45538;-64
2023/03/19 07:43:25;;;;;;;;;19.33;11.00;;;;;11.21;82.79;101018.53;5100137;27;46504;-64
2023/03/19 07:45:50;;;;;;;;;17.67;16.00;;;;;11.21;82.56;101022.91;5100392;27;45299;-64
2023/03/19 07:48:16;;;;;;;;;17.67;12.00;;;;;11.23;82.96;101027.25;5100370;27;45365;-64
2023/03/19 07:50:41;;;;;;;;;21.67;13.00;;;;;11.22;82.41;101024.66;5100472;27;45476;-64
2023/03/19 07:53:07;;;;;;;;;16.00;15.00;;;;;11.16;83.12;101017.72;5100173;27;46195;-64
2023/03/19 07:55:32;;;;;;;;;13.00;12.33;;;;;11.26;82.73;101039.50;5100132;27;45236;-64
2023/03/19 07:57:57;;;;;;;;;17.33;15.00;;;;;11.00;83.29;101000.50;5100350;27;45379;-64
2023/03/19 08:00:23;;;;;;;;;19.67;14.67;;;;;11.19;83.40;101030.84;5100229;27;45299;-64
2023/03/19 08:02:48;;;;;;;;;21.33;19.00;;;;;11.26;83.39;101040.34;5100007;27;45602;-65
2023/03/19 08:05:13;;;;;;;;;10.33;9.00;;;;;11.32;82.94;101042.00;5100076;27;45337;-64
2023/03/19 08:07:39;;;;;;;;;18.67;13.67;;;;;11.24;83.61;101041.28;5099831;27;45598;-64
2023/03/19 08:10:06;;;;;;;;;22.00;17.33;;;;;11.32;83.39;101052.53;5100234;27;45391;-64
2023/03/19 08:12:33;;;;;;;;;21.67;20.00;;;;;11.28;83.21;101046.47;5099638;27;46494;-65
2023/03/19 08:14:58;;;;;;;;;14.50;12.00;;;;;11.26;83.78;101039.50;5099807;27;45371;-64
2023/03/19 08:17:24;;;;;;;;;19.33;16.33;;;;;11.41;83.78;101056.75;5100142;27;45423;-64
2023/03/19 08:19:49;;;;;;;;;24.00;18.67;;;;;11.46;83.64;101057.53;5099946;27;45241;-64
2023/03/19 08:22:14;;;;;;;;;22.67;19.33;;;;;11.48;84.87;101059.22;5099823;27;45499;-64
2023/03/19 08:24:40;;;;;;;;;20.00;16.00;;;;;11.46;84.98;101042.56;5110840;27;45353;-65
2023/03/19 08:27:06;;;;;;;;;25.00;21.67;;;;;11.54;84.70;101054.72;5119660;27;45467;-65
2023/03/19 08:29:32;;;;;;;;;24.00;16.67;;;;;11.60;85.51;101070.41;5134264;27;45553;-65
2023/03/19 08:31:59;;;;;;;;;28.33;20.33;;;;;11.38;85.50;101039.22;5139171;27;45303;-65
2023/03/19 08:34:25;;;;;;;;;25.67;20.00;;;;;11.55;85.45;101069.66;5140252;27;45313;-65
2023/03/19 08:36:51;;;;;;;;;26.00;22.33;;;;;11.54;85.40;101065.28;5140660;27;45377;-65
2023/03/19 08:39:16;;;;;;;;;29.67;25.00;;;;;11.54;85.55;101074.03;5141001;27;45399;-65
2023/03/19 08:41:41;;;;;;;;;25.00;21.67;;;;;11.57;86.57;101079.25;5140409;27;45431;-65
2023/03/19 08:44:07;;;;;;;;;20.33;18.00;;;;;11.55;86.31;101069.66;5140089;27;45388;-65
2023/03/19 08:46:32;;;;;;;;;26.00;18.67;;;;;11.67;87.20;101086.06;5140706;27;45395;-65
2023/03/19 08:48:59;;;;;;;;;25.67;19.00;;;;;11.71;86.04;101089.50;5140819;27;45291;-65
2023/03/19 08:51:25;;;;;;;;;31.00;23.67;;;;;11.75;84.55;101096.47;5140312;27;46532;-65
2023/03/19 08:53:51;;;;;;;;;26.00;19.67;;;;;11.77;85.25;101093.78;5140667;27;45286;-65
2023/03/19 08:56:16;;;;;;;;;27.00;20.00;;;;;11.79;85.40;101098.13;5139991;27;45414;-65
2023/03/19 08:58:42;;;;;;;;;25.33;19.67;;;;;11.82;84.84;101108.63;5140630;27;45138;-65
2023/03/19 09:01:09;;;;;;;;;22.67;22.00;;;;;11.76;85.20;101095.56;5140017;27;47061;-65
2023/03/19 09:03:36;;;;;;;;;22.00;17.67;;;;;11.85;85.76;101115.59;5140239;27;45403;-65
2023/03/19 09:06:03;;;;;;;;;21.67;18.33;;;;;11.85;85.22;101118.25;5140375;27;45307;-65
2023/03/19 09:08:29;;;;;;;;;23.00;21.33;;;;;11.76;85.57;101108.75;5139670;27;45299;-65
2023/03/19 09:10:55;;;;;;;;;23.33;18.00;;;;;11.82;86.21;101129.72;5140054;27;46076;-65
2023/03/19 09:13:21;;;;;;;;;15.67;13.33;;;;;11.81;84.87;101124.47;5139939;27;45485;-65
2023/03/19 09:15:47;;;;;;;;;10.00;10.00;;;;;11.72;83.94;101132.56;5140342;27;45502;-65
2023/03/19 09:18:12;;;;;;;;;9.33;6.33;;;;;11.60;83.22;101128.44;5140640;27;45286;-65
2023/03/19 09:20:37;;;;;;;;;8.00;6.75;;;;;11.39;83.46;101114.78;5140052;27;45438;-65
2023/03/19 09:23:03;;;;;;;;;6.50;5.50;;;;;11.49;84.44;101140.06;5140040;27;45266;-65
2023/03/19 09:25:28;;;;;;;;;6.00;4.00;;;;;11.55;84.72;101151.41;5140352;27;45570;-65
2023/03/19 09:27:53;;;;;;;;;12.00;11.00;;;;;11.51;84.21;101145.31;5138977;27;45493;-65
2023/03/19 09:30:19;;;;;;;;;5.00;5.00;;;;;11.52;83.29;101146.16;5139429;27;46612;-65
2023/03/19 09:32:44;;;;;;;;;6.00;3.50;;;;;11.54;83.26;101161.06;5139493;27;45386;-65
2023/03/19 09:35:10;;;;;;;;;2.75;2.75;;;;;11.50;82.53;101149.72;5139887;27;45828;-65
2023/03/19 09:37:35;;;;;;;;;7.25;3.50;;;;;11.50;82.13;101136.53;5139948;27;45486;-65
2023/03/19 09:40:02;;;;;;;;;3.75;3.75;;;;;11.68;82.10;101160.81;5139598;27;47278;-65
2023/03/19 09:42:51;;;;;;;;;4.25;3.25;;;;;11.73;81.63;101152.78;5139501;27;45403;-65
2023/03/19 09:45:19;;;;;;;;;4.75;3.00;;;;;11.82;81.65;101157.84;5139489;27;45306;-65
2023/03/19 09:47:48;;;;;;;;;3.25;3.00;;;;;11.90;81.60;101155.06;5139881;27;45249;-65
2023/03/19 09:50:17;;;;;;;;;3.00;3.00;;;;;12.03;80.81;101159.22;5138862;27;45714;-65
2023/03/19 09:52:52;;;;;;;;;5.00;5.00;;;;;12.16;81.59;101146.59;5139692;27;45354;-65
2023/03/19 09:55:18;;;;;;;;;2.50;2.50;;;;;12.59;79.31;101169.38;5139121;27;45409;-65
2023/03/19 09:57:44;;;;;;;;;3.25;3.25;;;;;12.80;78.56;101165.31;5139187;27;45430;-65
2023/03/19 10:00:34;;;;;;;;;4.75;4.25;;;;;13.06;78.80;101172.56;5139385;27;46287;-65
2023/03/19 10:03:20;;;;;;;;;7.00;4.00;;;;;13.34;76.43;101189.47;5075124;28;45345;-65
2023/03/19 10:06:04;;;;;;;;;4.25;4.25;;;;;13.51;75.65;101197.00;5075646;28;45412;-65
2023/03/19 10:08:54;;;;;;;;;4.75;4.75;;;;;13.58;75.10;101203.84;5075268;28;45437;-65
2023/03/19 10:11:29;;;;;;;;;6.50;5.50;;;;;13.56;74.28;101200.34;5075362;28;47064;-65
2023/03/19 10:14:13;;;;;;;;;7.25;5.75;;;;;13.53;74.24;101193.38;5057916;28;45495;-65
2023/03/19 10:16:42;;;;;;;;;5.33;5.00;;;;;13.52;74.12;101206.63;5075558;28;45567;-65
2023/03/19 10:19:12;;;;;;;;;6.00;3.00;;;;;13.48;73.70;101197.06;5075529;28;45503;-65
2023/03/19 10:22:07;;;;;;;;;8.00;3.25;;;;;13.31;74.67;101210.72;5075371;28;45543;-65
2023/03/19 10:24:41;;;;;;;;;7.00;5.00;;;;;13.21;74.18;101212.72;5073344;28;45280;-64
2023/03/19 10:27:19;;;;;;;;;4.50;4.00;;;;;13.10;74.04;101201.56;5075181;28;45385;-64
2023/03/19 10:29:45;;;;;;;;;4.75;4.25;;;;;13.06;74.24;101222.78;5075369;28;45560;-64
2023/03/19 10:32:20;;;;;;;;;8.00;4.67;;;;;12.96;74.21;101217.78;5074994;28;46100;-64
2023/03/19 10:34:49;;;;;;;;;6.00;4.00;;;;;12.88;73.82;101232.06;5074979;28;45446;-65
2023/03/19 10:37:21;;;;;;;;;5.50;4.00;;;;;12.70;74.34;101224.56;5075179;28;45352;-64
2023/03/19 10:39:48;;;;;;;;;5.50;3.50;;;;;12.60;74.40;101244.19;5084574;27;45351;-64
2023/03/19 10:42:52;;;;;;;;;5.75;2.00;;;;;12.45;74.72;101240.13;5138728;27;45418;-63
2023/03/19 10:45:32;;;;;;;;;2.00;2.00;;;;;12.36;74.88;101239.44;5138706;27;45406;-63
2023/03/19 10:47:59;;;;;;;;;3.25;3.00;;;;;12.25;74.61;101230.88;5139268;27;45372;-64
2023/03/19 10:50:36;;;;;;;;;5.50;4.00;;;;;12.25;75.62;101249.34;5139071;27;45378;-64
2023/03/19 10:53:06;;;;;;;;;4.00;4.00;;;;;12.23;75.35;101250.28;5138912;27;45482;-65
2023/03/19 10:55:32;;;;;;;;;7.00;4.00;;;;;12.19;75.62;101253.00;5138782;27;45323;-65
2023/03/19 10:58:14;;;;;;;;;3.00;3.00;;;;;12.16;74.83;101254.84;5138899;27;45509;-65
2023/03/19 11:00:39;;;;;;;;;2.50;2.50;;;;;12.04;75.56;101255.09;5138982;27;45323;-64
2023/03/19 11:03:29;;;;;;;;;4.75;3.00;;;;;12.06;75.54;101270.00;5138538;27;45486;-65
2023/03/19 11:06:26;;;;;;;;;3.50;3.00;;;;;12.00;75.65;101264.84;5138377;27;45411;-65
2023/03/19 11:09:01;;;;;;;;;5.00;4.00;;;;;11.89;75.83;101270.28;5119446;27;45399;-65
2023/03/19 11:11:42;;;;;;;;;5.00;5.00;;;;;11.78;76.25;101248.56;5142327;27;45434;-65
2023/03/19 11:14:34;;;;;;;;;6.75;5.25;;;;;11.88;76.24;101265.03;5141741;27;46519;-65
2023/03/19 11:17:15;;;;;;;;;1.25;1.00;;;;;11.88;76.34;101255.38;5141845;27;45254;-65
2023/03/19 11:19:47;;;;;;;;;6.00;4.00;;;;;11.97;75.79;101275.47;5142355;27;45316;-65
2023/03/19 11:22:31;;;;;;;;;4.67;3.67;;;;;11.98;76.25;101277.19;5142508;27;45250;-66